sensor_id;sensor_type;location;lat;lon;timestamp;temperature;humidity
39315;DHT22;28703;44.412;11.918;2023-05-18T00:02:07;16.60;99.90
39315;DHT22;28703;44.412;11.918;2023-05-18T00:04:34;16.60;99.90
39315;DHT22;28703;44.412;11.918;2023-05-18T00:07:01;16.60;99.90
39315;DHT22;28703;44.412;11.918;2023-05-18T00:09:33;16.50;99.90
39315;DHT22;28703;44.412;11.918;2023-05-18T00:12:01;16.50;99.90
39315;DHT22;28703;44.412;11.918;2023-05-18T00:14:27;16.50;99.90
39315;DHT22;28703;44.412;11.918;2023-05-18T00:16:53;16.50;99.90
39315;DHT22;28703;44.412;11.918;2023-05-18T00:19:20;16.50;99.90
39315;DHT22;28703;44.412;11.918;2023-05-18T00:21:47;16.50;99.90
39315;DHT22;28703;44.412;11.918;2023-05-18T00:24:14;16.50;99.90
39315;DHT22;28703;44.412;11.918;2023-05-18T00:26:42;16.40;99.90
39315;DHT22;28703;44.412;11.918;2023-05-18T00:29:08;16.40;99.90
39315;DHT22;28703;44.412;11.918;2023-05-18T00:31:35;16.40;99.90
39315;DHT22;28703;44.412;11.918;2023-05-18T00:34:02;16.40;99.90
39315;DHT22;28703;44.412;11.918;2023-05-18T00:36:29;16.40;99.90
39315;DHT22;28703;44.412;11.918;2023-05-18T00:38:56;16.30;99.90
39315;DHT22;28703;44.412;11.918;2023-05-18T00:41:22;16.30;99.90
39315;DHT22;28703;44.412;11.918;2023-05-18T00:43:48;16.30;99.90
39315;DHT22;28703;44.412;11.918;2023-05-18T00:46:14;16.30;99.90
39315;DHT22;28703;44.412;11.918;2023-05-18T00:48:40;16.30;99.90
39315;DHT22;28703;44.412;11.918;2023-05-18T00:51:06;16.30;99.90
39315;DHT22;28703;44.412;11.918;2023-05-18T00:53:35;16.30;99.90
39315;DHT22;28703;44.412;11.918;2023-05-18T00:56:02;16.30;99.90
39315;DHT22;28703;44.412;11.918;2023-05-18T00:58:28;16.30;99.90
39315;DHT22;28703;44.412;11.918;2023-05-18T01:00:57;16.30;99.90
39315;DHT22;28703;44.412;11.918;2023-05-18T01:03:23;16.20;99.90
39315;DHT22;28703;44.412;11.918;2023-05-18T01:05:51;16.20;99.90
39315;DHT22;28703;44.412;11.918;2023-05-18T01:08:22;16.20;99.90
39315;DHT22;28703;44.412;11.918;2023-05-18T01:10:55;16.20;99.90
39315;DHT22;28703;44.412;11.918;2023-05-18T01:13:34;16.20;99.90
39315;DHT22;28703;44.412;11.918;2023-05-18T01:16:06;16.20;99.90
39315;DHT22;28703;44.412;11.918;2023-05-18T01:18:38;16.20;99.90
39315;DHT22;28703;44.412;11.918;2023-05-18T01:21:17;16.10;99.90
39315;DHT22;28703;44.412;11.918;2023-05-18T01:24:35;16.10;99.90
39315;DHT22;28703;44.412;11.918;2023-05-18T01:27:01;16.10;99.90
39315;DHT22;28703;44.412;11.918;2023-05-18T01:29:32;16.00;99.90
39315;DHT22;28703;44.412;11.918;2023-05-18T01:31:58;16.00;99.90
39315;DHT22;28703;44.412;11.918;2023-05-18T01:34:23;16.00;99.90
39315;DHT22;28703;44.412;11.918;2023-05-18T01:36:50;16.00;99.90
39315;DHT22;28703;44.412;11.918;2023-05-18T01:39:16;16.10;99.90
39315;DHT22;28703;44.412;11.918;2023-05-18T01:41:57;16.00;99.90
39315;DHT22;28703;44.412;11.918;2023-05-18T01:44:35;16.00;99.90
39315;DHT22;28703;44.412;11.918;2023-05-18T01:47:13;16.00;99.90
39315;DHT22;28703;44.412;11.918;2023-05-18T01:52:35;16.00;99.90
39315;DHT22;28703;44.412;11.918;2023-05-18T01:55:03;16.00;99.90
39315;DHT22;28703;44.412;11.918;2023-05-18T01:57:31;15.90;99.90
39315;DHT22;28703;44.412;11.918;2023-05-18T01:59:58;15.90;99.90
39315;DHT22;28703;44.412;11.918;2023-05-18T02:02:25;15.90;99.90
39315;DHT22;28703;44.412;11.918;2023-05-18T02:04:51;15.90;99.90
39315;DHT22;28703;44.412;11.918;2023-05-18T02:07:17;15.90;99.90
39315;DHT22;28703;44.412;11.918;2023-05-18T02:09:43;15.90;99.90
39315;DHT22;28703;44.412;11.918;2023-05-18T02:12:10;16.00;99.90
39315;DHT22;28703;44.412;11.918;2023-05-18T02:14:36;15.90;99.90
39315;DHT22;28703;44.412;11.918;2023-05-18T02:17:03;15.90;99.90
39315;DHT22;28703;44.412;11.918;2023-05-18T02:19:32;15.90;99.90
39315;DHT22;28703;44.412;11.918;2023-05-18T02:22:04;15.90;99.90
39315;DHT22;28703;44.412;11.918;2023-05-18T02:24:34;15.90;99.90
39315;DHT22;28703;44.412;11.918;2023-05-18T02:27:00;15.90;99.90
39315;DHT22;28703;44.412;11.918;2023-05-18T02:29:26;15.90;99.90
39315;DHT22;28703;44.412;11.918;2023-05-18T02:46:41;15.80;99.90
39315;DHT22;28703;44.412;11.918;2023-05-18T02:49:07;16.50;99.90
39315;DHT22;28703;44.412;11.918;2023-05-18T02:51:33;16.20;99.90
39315;DHT22;28703;44.412;11.918;2023-05-18T02:54:00;16.20;99.90
39315;DHT22;28703;44.412;11.918;2023-05-18T02:56:27;16.10;99.90
39315;DHT22;28703;44.412;11.918;2023-05-18T02:59:04;16.00;99.90
39315;DHT22;28703;44.412;11.918;2023-05-18T03:01:36;15.90;99.90
39315;DHT22;28703;44.412;11.918;2023-05-18T03:04:02;15.90;99.90
39315;DHT22;28703;44.412;11.918;2023-05-18T03:06:29;15.80;99.90
39315;DHT22;28703;44.412;11.918;2023-05-18T03:08:56;15.80;99.90
39315;DHT22;28703;44.412;11.918;2023-05-18T03:11:28;15.80;99.90
39315;DHT22;28703;44.412;11.918;2023-05-18T03:13:54;15.80;99.90
39315;DHT22;28703;44.412;11.918;2023-05-18T03:16:20;15.80;99.90
39315;DHT22;28703;44.412;11.918;2023-05-18T03:18:46;15.80;99.90
39315;DHT22;28703;44.412;11.918;2023-05-18T03:21:12;15.80;99.90
39315;DHT22;28703;44.412;11.918;2023-05-18T03:23:38;15.80;99.90
39315;DHT22;28703;44.412;11.918;2023-05-18T03:26:05;15.80;99.90
39315;DHT22;28703;44.412;11.918;2023-05-18T03:28:39;15.80;99.90
39315;DHT22;28703;44.412;11.918;2023-05-18T03:31:05;15.70;99.90
39315;DHT22;28703;44.412;11.918;2023-05-18T03:33:32;15.70;99.90
39315;DHT22;28703;44.412;11.918;2023-05-18T03:36:03;15.80;99.90
39315;DHT22;28703;44.412;11.918;2023-05-18T03:38:30;15.80;99.90
39315;DHT22;28703;44.412;11.918;2023-05-18T03:41:02;15.70;99.90
39315;DHT22;28703;44.412;11.918;2023-05-18T03:43:27;15.70;99.90
39315;DHT22;28703;44.412;11.918;2023-05-18T03:45:57;15.70;99.90
39315;DHT22;28703;44.412;11.918;2023-05-18T03:48:25;15.70;99.90
39315;DHT22;28703;44.412;11.918;2023-05-18T03:50:51;15.70;99.90
39315;DHT22;28703;44.412;11.918;2023-05-18T03:53:18;15.70;99.90
39315;DHT22;28703;44.412;11.918;2023-05-18T03:55:46;15.70;99.90
39315;DHT22;28703;44.412;11.918;2023-05-18T03:58:14;15.70;99.90
39315;DHT22;28703;44.412;11.918;2023-05-18T04:00:40;15.70;99.90
39315;DHT22;28703;44.412;11.918;2023-05-18T04:03:07;15.70;99.90
39315;DHT22;28703;44.412;11.918;2023-05-18T04:05:38;15.70;99.90
39315;DHT22;28703;44.412;11.918;2023-05-18T04:08:04;15.70;99.90
39315;DHT22;28703;44.412;11.918;2023-05-18T04:10:32;15.70;99.90
39315;DHT22;28703;44.412;11.918;2023-05-18T04:12:58;15.60;99.90
39315;DHT22;28703;44.412;11.918;2023-05-18T04:15:24;15.70;99.90
39315;DHT22;28703;44.412;11.918;2023-05-18T04:17:50;15.70;99.90
39315;DHT22;28703;44.412;11.918;2023-05-18T04:20:20;15.70;99.90
39315;DHT22;28703;44.412;11.918;2023-05-18T04:22:47;15.70;99.90
39315;DHT22;28703;44.412;11.918;2023-05-18T04:25:14;15.70;99.90
39315;DHT22;28703;44.412;11.918;2023-05-18T04:27:41;15.70;99.90
39315;DHT22;28703;44.412;11.918;2023-05-18T04:30:09;15.70;99.90
39315;DHT22;28703;44.412;11.918;2023-05-18T04:32:39;15.70;99.90
39315;DHT22;28703;44.412;11.918;2023-05-18T04:35:08;15.70;99.90
39315;DHT22;28703;44.412;11.918;2023-05-18T04:37:35;15.70;99.90
39315;DHT22;28703;44.412;11.918;2023-05-18T04:40:08;15.80;99.90
39315;DHT22;28703;44.412;11.918;2023-05-18T04:42:38;15.80;99.90
39315;DHT22;28703;44.412;11.918;2023-05-18T04:45:14;15.70;99.90
39315;DHT22;28703;44.412;11.918;2023-05-18T04:47:46;15.80;99.90
39315;DHT22;28703;44.412;11.918;2023-05-18T04:50:14;15.80;99.90
39315;DHT22;28703;44.412;11.918;2023-05-18T04:52:45;15.80;99.90
39315;DHT22;28703;44.412;11.918;2023-05-18T04:55:18;15.80;99.90
39315;DHT22;28703;44.412;11.918;2023-05-18T04:57:51;15.90;99.90
39315;DHT22;28703;44.412;11.918;2023-05-18T05:00:22;15.80;99.90
39315;DHT22;28703;44.412;11.918;2023-05-18T05:02:49;15.80;99.90
39315;DHT22;28703;44.412;11.918;2023-05-18T05:05:16;15.90;99.90
39315;DHT22;28703;44.412;11.918;2023-05-18T05:07:42;15.90;99.90
39315;DHT22;28703;44.412;11.918;2023-05-18T05:10:08;15.90;99.90
39315;DHT22;28703;44.412;11.918;2023-05-18T05:12:36;15.90;99.90
39315;DHT22;28703;44.412;11.918;2023-05-18T05:15:04;15.90;99.90
39315;DHT22;28703;44.412;11.918;2023-05-18T05:17:31;15.90;99.90
39315;DHT22;28703;44.412;11.918;2023-05-18T05:19:57;15.90;99.90
39315;DHT22;28703;44.412;11.918;2023-05-18T05:22:23;15.90;99.90
39315;DHT22;28703;44.412;11.918;2023-05-18T05:24:50;15.90;99.90
39315;DHT22;28703;44.412;11.918;2023-05-18T05:27:16;15.90;99.90
39315;DHT22;28703;44.412;11.918;2023-05-18T05:29:45;16.00;99.90
39315;DHT22;28703;44.412;11.918;2023-05-18T05:32:12;16.00;99.90
39315;DHT22;28703;44.412;11.918;2023-05-18T05:34:39;16.00;99.90
39315;DHT22;28703;44.412;11.918;2023-05-18T05:37:06;16.00;99.90
39315;DHT22;28703;44.412;11.918;2023-05-18T05:39:31;16.00;99.90
39315;DHT22;28703;44.412;11.918;2023-05-18T05:41:58;16.00;99.90
39315;DHT22;28703;44.412;11.918;2023-05-18T05:44:24;16.00;99.90
39315;DHT22;28703;44.412;11.918;2023-05-18T05:46:50;16.00;99.90
39315;DHT22;28703;44.412;11.918;2023-05-18T05:49:16;16.00;99.90
39315;DHT22;28703;44.412;11.918;2023-05-18T05:51:42;16.00;99.90
39315;DHT22;28703;44.412;11.918;2023-05-18T05:54:08;16.10;99.90
39315;DHT22;28703;44.412;11.918;2023-05-18T05:56:35;16.10;99.90
39315;DHT22;28703;44.412;11.918;2023-05-18T05:59:01;16.10;99.90
39315;DHT22;28703;44.412;11.918;2023-05-18T06:01:26;16.20;99.90
39315;DHT22;28703;44.412;11.918;2023-05-18T06:03:54;16.20;99.90
39315;DHT22;28703;44.412;11.918;2023-05-18T06:06:19;16.20;99.90
39315;DHT22;28703;44.412;11.918;2023-05-18T06:08:46;16.30;99.90
39315;DHT22;28703;44.412;11.918;2023-05-18T06:11:15;16.30;99.90
39315;DHT22;28703;44.412;11.918;2023-05-18T06:13:43;16.30;99.90
39315;DHT22;28703;44.412;11.918;2023-05-18T06:16:10;16.40;99.90
39315;DHT22;28703;44.412;11.918;2023-05-18T06:18:35;16.40;99.90
39315;DHT22;28703;44.412;11.918;2023-05-18T06:21:03;16.40;99.90
39315;DHT22;28703;44.412;11.918;2023-05-18T06:23:30;16.40;99.90
39315;DHT22;28703;44.412;11.918;2023-05-18T06:26:02;16.40;99.90
39315;DHT22;28703;44.412;11.918;2023-05-18T06:28:48;16.50;99.90
39315;DHT22;28703;44.412;11.918;2023-05-18T06:31:36;16.40;99.90
39315;DHT22;28703;44.412;11.918;2023-05-18T06:34:25;16.40;99.90
39315;DHT22;28703;44.412;11.918;2023-05-18T06:36:54;16.40;99.90
39315;DHT22;28703;44.412;11.918;2023-05-18T06:39:23;16.50;99.90
39315;DHT22;28703;44.412;11.918;2023-05-18T06:41:50;16.50;99.90
39315;DHT22;28703;44.412;11.918;2023-05-18T06:44:21;16.60;99.90
39315;DHT22;28703;44.412;11.918;2023-05-18T06:47:04;16.60;99.90
39315;DHT22;28703;44.412;11.918;2023-05-18T06:49:31;16.70;99.90
39315;DHT22;28703;44.412;11.918;2023-05-18T06:51:57;16.70;99.90
39315;DHT22;28703;44.412;11.918;2023-05-18T06:54:23;16.80;99.90
39315;DHT22;28703;44.412;11.918;2023-05-18T06:56:49;16.80;99.90
39315;DHT22;28703;44.412;11.918;2023-05-18T06:59:16;16.80;99.90
39315;DHT22;28703;44.412;11.918;2023-05-18T07:01:42;16.90;99.90
39315;DHT22;28703;44.412;11.918;2023-05-18T07:04:08;17.00;99.90
39315;DHT22;28703;44.412;11.918;2023-05-18T07:06:34;17.00;99.90
39315;DHT22;28703;44.412;11.918;2023-05-18T07:09:02;17.00;99.90
39315;DHT22;28703;44.412;11.918;2023-05-18T07:11:28;17.10;99.90
39315;DHT22;28703;44.412;11.918;2023-05-18T07:13:54;17.20;99.90
39315;DHT22;28703;44.412;11.918;2023-05-18T07:16:20;17.30;99.90
39315;DHT22;28703;44.412;11.918;2023-05-18T07:18:46;17.40;99.90
39315;DHT22;28703;44.412;11.918;2023-05-18T07:21:11;17.40;99.90
39315;DHT22;28703;44.412;11.918;2023-05-18T07:23:37;17.50;99.90
39315;DHT22;28703;44.412;11.918;2023-05-18T07:26:03;17.60;99.90
39315;DHT22;28703;44.412;11.918;2023-05-18T07:28:32;17.60;99.90
39315;DHT22;28703;44.412;11.918;2023-05-18T07:30:58;17.70;99.90
39315;DHT22;28703;44.412;11.918;2023-05-18T07:33:24;17.80;99.90
39315;DHT22;28703;44.412;11.918;2023-05-18T07:35:50;17.80;99.90
39315;DHT22;28703;44.412;11.918;2023-05-18T07:38:17;17.90;99.90
39315;DHT22;28703;44.412;11.918;2023-05-18T07:40:43;17.90;99.90
39315;DHT22;28703;44.412;11.918;2023-05-18T07:43:12;18.00;99.90
39315;DHT22;28703;44.412;11.918;2023-05-18T07:45:41;18.00;99.90
39315;DHT22;28703;44.412;11.918;2023-05-18T07:48:07;18.00;99.90
39315;DHT22;28703;44.412;11.918;2023-05-18T07:50:35;18.10;99.90
39315;DHT22;28703;44.412;11.918;2023-05-18T07:53:01;18.10;99.90
39315;DHT22;28703;44.412;11.918;2023-05-18T07:55:32;18.10;99.90
39315;DHT22;28703;44.412;11.918;2023-05-18T07:57:58;18.20;99.90
39315;DHT22;28703;44.412;11.918;2023-05-18T08:00:27;18.20;99.90
39315;DHT22;28703;44.412;11.918;2023-05-18T08:02:56;18.30;99.90
39315;DHT22;28703;44.412;11.918;2023-05-18T08:13:53;18.40;99.90
39315;DHT22;28703;44.412;11.918;2023-05-18T08:20:20;18.40;99.90
39315;DHT22;28703;44.412;11.918;2023-05-18T08:22:51;18.40;99.90
39315;DHT22;28703;44.412;11.918;2023-05-18T08:25:21;18.50;99.90
39315;DHT22;28703;44.412;11.918;2023-05-18T08:27:53;18.40;99.90
39315;DHT22;28703;44.412;11.918;2023-05-18T08:30:22;18.50;99.90
39315;DHT22;28703;44.412;11.918;2023-05-18T08:32:48;18.50;99.90
39315;DHT22;28703;44.412;11.918;2023-05-18T08:35:17;18.40;99.90
39315;DHT22;28703;44.412;11.918;2023-05-18T08:37:50;18.50;99.90
39315;DHT22;28703;44.412;11.918;2023-05-18T08:40:19;18.50;99.90
39315;DHT22;28703;44.412;11.918;2023-05-18T08:45:31;18.60;99.90
39315;DHT22;28703;44.412;11.918;2023-05-18T08:48:10;18.70;99.90
39315;DHT22;28703;44.412;11.918;2023-05-18T08:50:43;18.70;99.90
39315;DHT22;28703;44.412;11.918;2023-05-18T08:53:20;18.80;99.90
39315;DHT22;28703;44.412;11.918;2023-05-18T08:55:52;18.80;99.90
39315;DHT22;28703;44.412;11.918;2023-05-18T08:58:31;18.90;99.90
39315;DHT22;28703;44.412;11.918;2023-05-18T09:01:02;19.00;99.90
39315;DHT22;28703;44.412;11.918;2023-05-18T09:03:29;19.00;99.90
39315;DHT22;28703;44.412;11.918;2023-05-18T09:05:58;19.10;99.90
39315;DHT22;28703;44.412;11.918;2023-05-18T09:08:26;19.10;99.90
39315;DHT22;28703;44.412;11.918;2023-05-18T09:10:56;19.10;99.90
39315;DHT22;28703;44.412;11.918;2023-05-18T09:13:23;19.10;99.90
39315;DHT22;28703;44.412;11.918;2023-05-18T09:15:52;19.10;99.90
39315;DHT22;28703;44.412;11.918;2023-05-18T09:18:18;19.10;99.90
39315;DHT22;28703;44.412;11.918;2023-05-18T09:20:50;19.10;99.90
39315;DHT22;28703;44.412;11.918;2023-05-18T09:23:16;19.20;99.90
39315;DHT22;28703;44.412;11.918;2023-05-18T09:25:45;19.20;99.90
39315;DHT22;28703;44.412;11.918;2023-05-18T09:28:35;19.30;99.90
39315;DHT22;28703;44.412;11.918;2023-05-18T09:31:08;19.30;99.90
39315;DHT22;28703;44.412;11.918;2023-05-18T09:33:36;19.30;99.90
39315;DHT22;28703;44.412;11.918;2023-05-18T09:36:06;19.40;99.90
39315;DHT22;28703;44.412;11.918;2023-05-18T09:38:37;19.30;99.90
39315;DHT22;28703;44.412;11.918;2023-05-18T09:41:09;19.40;99.90
39315;DHT22;28703;44.412;11.918;2023-05-18T09:43:37;19.50;99.90
39315;DHT22;28703;44.412;11.918;2023-05-18T09:46:08;19.60;99.90
39315;DHT22;28703;44.412;11.918;2023-05-18T09:48:42;19.60;99.90
39315;DHT22;28703;44.412;11.918;2023-05-18T09:51:12;19.70;99.90
39315;DHT22;28703;44.412;11.918;2023-05-18T09:54:01;19.70;99.90
39315;DHT22;28703;44.412;11.918;2023-05-18T09:56:36;19.80;99.90
39315;DHT22;28703;44.412;11.918;2023-05-18T09:59:10;19.80;99.90
39315;DHT22;28703;44.412;11.918;2023-05-18T10:01:59;19.90;99.90
39315;DHT22;28703;44.412;11.918;2023-05-18T10:04:40;20.00;99.90
39315;DHT22;28703;44.412;11.918;2023-05-18T10:07:14;20.00;99.90
39315;DHT22;28703;44.412;11.918;2023-05-18T10:09:42;20.00;99.90
39315;DHT22;28703;44.412;11.918;2023-05-18T10:12:13;20.00;99.90
39315;DHT22;28703;44.412;11.918;2023-05-18T10:14:44;20.00;99.90
39315;DHT22;28703;44.412;11.918;2023-05-18T10:17:15;20.10;99.90
39315;DHT22;28703;44.412;11.918;2023-05-18T10:19:43;20.10;99.90
39315;DHT22;28703;44.412;11.918;2023-05-18T10:22:16;20.00;99.90
39315;DHT22;28703;44.412;11.918;2023-05-18T10:24:50;20.10;99.90
39315;DHT22;28703;44.412;11.918;2023-05-18T10:27:25;20.10;99.90
39315;DHT22;28703;44.412;11.918;2023-05-18T10:29:53;20.10;99.90
39315;DHT22;28703;44.412;11.918;2023-05-18T10:32:23;20.00;99.90
39315;DHT22;28703;44.412;11.918;2023-05-18T10:34:51;20.00;99.90
39315;DHT22;28703;44.412;11.918;2023-05-18T10:37:21;19.90;99.90
39315;DHT22;28703;44.412;11.918;2023-05-18T10:39:59;20.00;99.90
39315;DHT22;28703;44.412;11.918;2023-05-18T10:42:32;20.00;99.90
39315;DHT22;28703;44.412;11.918;2023-05-18T10:44:59;20.00;99.90
39315;DHT22;28703;44.412;11.918;2023-05-18T10:47:29;19.90;99.90
39315;DHT22;28703;44.412;11.918;2023-05-18T10:49:58;19.90;99.90
39315;DHT22;28703;44.412;11.918;2023-05-18T10:52:28;19.90;99.90
39315;DHT22;28703;44.412;11.918;2023-05-18T10:54:59;19.90;99.90
39315;DHT22;28703;44.412;11.918;2023-05-18T10:57:45;19.90;99.90
39315;DHT22;28703;44.412;11.918;2023-05-18T12:53:33;21.00;99.90
39315;DHT22;28703;44.412;11.918;2023-05-18T12:56:04;21.10;99.90
39315;DHT22;28703;44.412;11.918;2023-05-18T12:58:34;21.20;99.90
39315;DHT22;28703;44.412;11.918;2023-05-18T13:01:07;21.40;99.90
39315;DHT22;28703;44.412;11.918;2023-05-18T13:03:34;21.50;99.90
39315;DHT22;28703;44.412;11.918;2023-05-18T13:06:05;21.70;99.90
39315;DHT22;28703;44.412;11.918;2023-05-18T13:08:32;21.90;99.90
39315;DHT22;28703;44.412;11.918;2023-05-18T14:31:10;22.40;99.90
39315;DHT22;28703;44.412;11.918;2023-05-18T14:33:38;22.40;99.90
39315;DHT22;28703;44.412;11.918;2023-05-18T14:36:04;22.60;99.90
39315;DHT22;28703;44.412;11.918;2023-05-18T14:38:30;22.60;99.90
39315;DHT22;28703;44.412;11.918;2023-05-18T14:40:57;22.70;99.90
39315;DHT22;28703;44.412;11.918;2023-05-18T14:43:23;22.80;99.90
39315;DHT22;28703;44.412;11.918;2023-05-18T14:45:49;22.90;99.90
39315;DHT22;28703;44.412;11.918;2023-05-18T14:48:15;23.10;99.90
39315;DHT22;28703;44.412;11.918;2023-05-18T14:50:41;23.10;99.90
39315;DHT22;28703;44.412;11.918;2023-05-18T14:53:06;23.30;99.90
39315;DHT22;28703;44.412;11.918;2023-05-18T14:55:33;23.50;99.90
39315;DHT22;28703;44.412;11.918;2023-05-18T14:57:59;23.70;99.90
39315;DHT22;28703;44.412;11.918;2023-05-18T15:00:29;23.80;99.90
39315;DHT22;28703;44.412;11.918;2023-05-18T15:02:55;23.90;99.90
39315;DHT22;28703;44.412;11.918;2023-05-18T15:05:21;24.10;99.90
39315;DHT22;28703;44.412;11.918;2023-05-18T15:07:47;24.40;99.90
39315;DHT22;28703;44.412;11.918;2023-05-18T15:10:13;24.70;99.90
39315;DHT22;28703;44.412;11.918;2023-05-18T15:12:40;25.00;99.90
39315;DHT22;28703;44.412;11.918;2023-05-18T15:15:08;25.20;99.80
39315;DHT22;28703;44.412;11.918;2023-05-18T15:17:35;25.50;99.40
39315;DHT22;28703;44.412;11.918;2023-05-18T15:20:01;25.70;98.90
39315;DHT22;28703;44.412;11.918;2023-05-18T15:22:28;25.90;98.70
39315;DHT22;28703;44.412;11.918;2023-05-18T15:24:54;26.00;98.50
39315;DHT22;28703;44.412;11.918;2023-05-18T15:27:20;26.00;98.50
39315;DHT22;28703;44.412;11.918;2023-05-18T15:29:46;26.00;98.10
39315;DHT22;28703;44.412;11.918;2023-05-18T15:32:13;26.00;98.00
39315;DHT22;28703;44.412;11.918;2023-05-18T15:34:39;26.00;98.00
39315;DHT22;28703;44.412;11.918;2023-05-18T15:37:05;26.10;97.80
39315;DHT22;28703;44.412;11.918;2023-05-18T15:39:31;26.20;97.80
39315;DHT22;28703;44.412;11.918;2023-05-18T15:41:57;26.30;97.50
39315;DHT22;28703;44.412;11.918;2023-05-18T15:44:23;26.40;97.50
39315;DHT22;28703;44.412;11.918;2023-05-18T15:46:49;26.50;97.30
39315;DHT22;28703;44.412;11.918;2023-05-18T15:49:15;26.60;97.20
39315;DHT22;28703;44.412;11.918;2023-05-18T15:51:41;26.60;97.00
39315;DHT22;28703;44.412;11.918;2023-05-18T15:54:10;26.70;96.90
39315;DHT22;28703;44.412;11.918;2023-05-18T15:56:36;26.90;96.60
39315;DHT22;28703;44.412;11.918;2023-05-18T15:59:02;27.00;96.30
39315;DHT22;28703;44.412;11.918;2023-05-18T16:01:28;27.10;96.10
39315;DHT22;28703;44.412;11.918;2023-05-18T16:03:57;27.30;96.00
39315;DHT22;28703;44.412;11.918;2023-05-18T16:06:23;27.50;95.90
39315;DHT22;28703;44.412;11.918;2023-05-18T16:08:49;27.60;95.70
39315;DHT22;28703;44.412;11.918;2023-05-18T16:11:15;27.70;95.30
39315;DHT22;28703;44.412;11.918;2023-05-18T16:13:42;27.90;95.20
39315;DHT22;28703;44.412;11.918;2023-05-18T16:16:12;28.00;95.00
39315;DHT22;28703;44.412;11.918;2023-05-18T16:18:41;28.20;94.70
39315;DHT22;28703;44.412;11.918;2023-05-18T16:21:07;28.30;94.60
39315;DHT22;28703;44.412;11.918;2023-05-18T16:23:36;28.50;94.50
39315;DHT22;28703;44.412;11.918;2023-05-18T16:26:03;28.60;94.10
39315;DHT22;28703;44.412;11.918;2023-05-18T16:28:30;28.60;93.70
39315;DHT22;28703;44.412;11.918;2023-05-18T16:31:00;28.40;93.40
39315;DHT22;28703;44.412;11.918;2023-05-18T16:33:29;28.30;93.40
39315;DHT22;28703;44.412;11.918;2023-05-18T16:35:56;28.30;93.70
39315;DHT22;28703;44.412;11.918;2023-05-18T16:38:23;28.30;93.60
39315;DHT22;28703;44.412;11.918;2023-05-18T16:40:49;28.30;93.40
39315;DHT22;28703;44.412;11.918;2023-05-18T16:43:15;28.50;93.30
39315;DHT22;28703;44.412;11.918;2023-05-18T16:45:47;28.70;93.10
39315;DHT22;28703;44.412;11.918;2023-05-18T16:48:13;28.90;92.70
39315;DHT22;28703;44.412;11.918;2023-05-18T16:50:39;29.00;92.40
39315;DHT22;28703;44.412;11.918;2023-05-18T16:53:05;29.10;92.10
39315;DHT22;28703;44.412;11.918;2023-05-18T16:55:31;29.10;91.90
39315;DHT22;28703;44.412;11.918;2023-05-18T16:58:01;29.20;91.80
39315;DHT22;28703;44.412;11.918;2023-05-18T17:00:27;29.30;91.60
39315;DHT22;28703;44.412;11.918;2023-05-18T17:02:57;29.40;91.50
39315;DHT22;28703;44.412;11.918;2023-05-18T17:05:25;29.40;91.40
39315;DHT22;28703;44.412;11.918;2023-05-18T17:07:51;29.30;91.10
39315;DHT22;28703;44.412;11.918;2023-05-18T17:10:18;29.30;91.10
39315;DHT22;28703;44.412;11.918;2023-05-18T17:12:47;29.10;91.10
39315;DHT22;28703;44.412;11.918;2023-05-18T17:15:15;29.00;91.10
39315;DHT22;28703;44.412;11.918;2023-05-18T17:17:42;28.80;90.90
39315;DHT22;28703;44.412;11.918;2023-05-18T17:20:09;28.50;90.90
39315;DHT22;28703;44.412;11.918;2023-05-18T17:22:36;28.30;90.90
39315;DHT22;28703;44.412;11.918;2023-05-18T17:25:03;28.10;91.00
39315;DHT22;28703;44.412;11.918;2023-05-18T17:27:29;27.90;91.20
39315;DHT22;28703;44.412;11.918;2023-05-18T17:29:56;27.70;91.40
39315;DHT22;28703;44.412;11.918;2023-05-18T17:32:23;27.50;91.50
39315;DHT22;28703;44.412;11.918;2023-05-18T17:34:49;27.40;92.00
39315;DHT22;28703;44.412;11.918;2023-05-18T17:37:15;27.30;91.80
39315;DHT22;28703;44.412;11.918;2023-05-18T17:39:41;27.30;91.90
39315;DHT22;28703;44.412;11.918;2023-05-18T17:42:10;27.30;91.80
39315;DHT22;28703;44.412;11.918;2023-05-18T17:44:37;27.30;91.80
39315;DHT22;28703;44.412;11.918;2023-05-18T17:47:05;27.00;91.70
39315;DHT22;28703;44.412;11.918;2023-05-18T17:49:31;26.80;91.60
39315;DHT22;28703;44.412;11.918;2023-05-18T17:51:58;26.50;91.60
39315;DHT22;28703;44.412;11.918;2023-05-18T17:54:24;26.20;91.80
39315;DHT22;28703;44.412;11.918;2023-05-18T17:56:53;25.90;91.80
39315;DHT22;28703;44.412;11.918;2023-05-18T17:59:24;25.60;92.00
39315;DHT22;28703;44.412;11.918;2023-05-18T18:01:53;25.20;92.20
39315;DHT22;28703;44.412;11.918;2023-05-18T18:04:22;25.00;92.50
39315;DHT22;28703;44.412;11.918;2023-05-18T18:06:48;24.60;92.80
39315;DHT22;28703;44.412;11.918;2023-05-18T18:09:19;24.40;93.20
39315;DHT22;28703;44.412;11.918;2023-05-18T18:11:47;24.10;93.60
39315;DHT22;28703;44.412;11.918;2023-05-18T18:14:16;23.80;93.80
39315;DHT22;28703;44.412;11.918;2023-05-18T18:16:43;23.60;94.10
39315;DHT22;28703;44.412;11.918;2023-05-18T18:19:18;23.40;94.30
39315;DHT22;28703;44.412;11.918;2023-05-18T18:21:50;23.10;94.60
39315;DHT22;28703;44.412;11.918;2023-05-18T18:24:16;22.90;94.90
39315;DHT22;28703;44.412;11.918;2023-05-18T18:26:47;22.70;95.20
39315;DHT22;28703;44.412;11.918;2023-05-18T18:29:14;22.50;95.60
39315;DHT22;28703;44.412;11.918;2023-05-18T18:31:40;22.30;95.90
39315;DHT22;28703;44.412;11.918;2023-05-18T18:34:09;22.10;96.10
39315;DHT22;28703;44.412;11.918;2023-05-18T18:36:36;22.00;96.50
39315;DHT22;28703;44.412;11.918;2023-05-18T18:39:02;21.80;96.70
39315;DHT22;28703;44.412;11.918;2023-05-18T18:41:30;21.70;96.90
39315;DHT22;28703;44.412;11.918;2023-05-18T18:44:00;21.50;97.10
39315;DHT22;28703;44.412;11.918;2023-05-18T18:46:26;21.40;97.40
39315;DHT22;28703;44.412;11.918;2023-05-18T18:48:52;21.20;97.50
39315;DHT22;28703;44.412;11.918;2023-05-18T18:51:18;21.10;97.80
39315;DHT22;28703;44.412;11.918;2023-05-18T18:53:44;21.00;98.00
39315;DHT22;28703;44.412;11.918;2023-05-18T18:56:13;20.90;98.20
39315;DHT22;28703;44.412;11.918;2023-05-18T18:58:40;20.70;98.40
39315;DHT22;28703;44.412;11.918;2023-05-18T19:01:06;20.60;98.60
39315;DHT22;28703;44.412;11.918;2023-05-18T19:03:32;20.50;98.80
39315;DHT22;28703;44.412;11.918;2023-05-18T19:06:00;20.40;99.00
39315;DHT22;28703;44.412;11.918;2023-05-18T19:08:27;20.30;99.20
39315;DHT22;28703;44.412;11.918;2023-05-18T19:10:53;20.20;99.40